createdAt,value
2022-08-19T00:02:02.831Z,100331.25
2022-08-19T00:04:35.875Z,100324.84
2022-08-19T00:07:04.810Z,100323.41
2022-08-19T00:09:33.428Z,100335.22
2022-08-19T00:12:03.212Z,100346.53
2022-08-19T00:14:32.811Z,100345.00
2022-08-19T00:17:03.962Z,100352.34
2022-08-19T00:19:32.838Z,100360.56
2022-08-19T00:22:01.229Z,100363.25
2022-08-19T00:24:29.682Z,100369.97
2022-08-19T00:26:58.348Z,100383.13
2022-08-19T00:29:52.444Z,100390.03
2022-08-19T00:32:21.736Z,100412.31
2022-08-19T00:34:50.143Z,100413.84
2022-08-19T00:37:19.004Z,100439.53
2022-08-19T00:39:49.208Z,100405.13
2022-08-19T00:42:17.560Z,100438.84
2022-08-19T00:44:45.961Z,100483.44
2022-08-19T00:47:16.239Z,100532.69
2022-08-19T00:49:51.498Z,100552.78
2022-08-19T00:52:23.170Z,100559.13
2022-08-19T00:54:53.565Z,100564.00
2022-08-19T00:57:28.042Z,100572.22
2022-08-19T01:00:02.412Z,100579.47
2022-08-19T01:02:34.200Z,100573.69
2022-08-19T01:05:05.253Z,100577.59
2022-08-19T01:07:37.901Z,100590.47
2022-08-19T01:10:10.203Z,100604.03
2022-08-19T01:12:39.294Z,100605.16
2022-08-19T01:15:10.792Z,100588.78
2022-08-19T01:17:42.452Z,100585.09
2022-08-19T01:20:14.785Z,100594.66
2022-08-19T01:22:47.085Z,100596.25
2022-08-19T01:25:16.708Z,100608.63
2022-08-19T01:27:48.439Z,100629.50
2022-08-19T01:30:23.613Z,100604.69
2022-08-19T01:32:52.530Z,100602.91
2022-08-19T01:35:21.223Z,100591.97
2022-08-19T01:37:53.437Z,100602.66
2022-08-19T01:40:23.640Z,100619.84
2022-08-19T01:42:53.653Z,100644.06
2022-08-19T01:45:25.010Z,100660.50
2022-08-19T01:48:01.756Z,100655.59
2022-08-19T01:50:31.673Z,100648.06
2022-08-19T01:53:06.565Z,100655.84
2022-08-19T01:55:41.351Z,100655.69
2022-08-19T01:58:14.092Z,100652.09
2022-08-19T02:00:45.147Z,100643.00
2022-08-19T02:03:14.051Z,100645.84
2022-08-19T02:05:43.303Z,100647.91
2022-08-19T02:08:13.174Z,100647.19
2022-08-19T02:10:43.316Z,100640.72
2022-08-19T02:13:12.436Z,100644.06
2022-08-19T02:15:40.829Z,100660.34
2022-08-19T02:18:09.792Z,100656.63
2022-08-19T02:20:39.608Z,100642.06
2022-08-19T02:23:13.637Z,100644.19
2022-08-19T02:25:48.865Z,100619.13
2022-08-19T02:28:18.894Z,100626.38
2022-08-19T02:30:49.434Z,100611.53
2022-08-19T02:33:18.199Z,100598.88
2022-08-19T02:35:47.802Z,100584.97
2022-08-19T02:38:29.108Z,100558.13
2022-08-19T02:41:01.466Z,100551.56
2022-08-19T02:43:33.705Z,100535.69
2022-08-19T02:46:03.383Z,100558.66
2022-08-19T02:48:33.808Z,100551.84
2022-08-19T02:51:02.580Z,100557.03
2022-08-19T02:53:31.502Z,100561.63
2022-08-19T02:56:01.180Z,100557.22
2022-08-19T02:58:29.625Z,100565.53
2022-08-19T03:00:58.767Z,100575.78
2022-08-19T03:03:27.401Z,100561.28
2022-08-19T03:06:09.456Z,100559.88
2022-08-19T03:08:39.089Z,100543.09
2022-08-19T03:11:14.001Z,100535.69
2022-08-19T03:13:44.106Z,100540.03
2022-08-19T03:16:13.723Z,100538.47
2022-08-19T03:18:41.953Z,100529.53
2022-08-19T03:21:12.537Z,100516.84
2022-08-19T03:23:41.104Z,100522.19
2022-08-19T03:26:16.381Z,100517.09
2022-08-19T03:28:47.682Z,100528.19
2022-08-19T03:31:44.282Z,100532.59
2022-08-19T03:34:12.601Z,100552.53
2022-08-19T03:36:41.717Z,100555.91
2022-08-19T03:39:10.313Z,100560.13
2022-08-19T03:41:45.740Z,100570.56
2022-08-19T03:44:16.992Z,100552.66
2022-08-19T03:46:48.014Z,100566.25
2022-08-19T03:49:18.103Z,100578.34
2022-08-19T03:51:47.658Z,100576.66
2022-08-19T03:54:17.212Z,100589.44
2022-08-19T03:56:49.151Z,100596.59
2022-08-19T03:59:21.186Z,100604.13
2022-08-19T04:01:49.385Z,100578.44
2022-08-19T04:04:17.545Z,100585.06
2022-08-19T04:06:48.818Z,100577.94
2022-08-19T04:09:17.401Z,100574.16
2022-08-19T04:11:50.078Z,100581.94
2022-08-19T04:14:21.004Z,100576.59
2022-08-19T04:16:50.430Z,100575.59
2022-08-19T04:19:20.342Z,100563.53
2022-08-19T04:21:50.818Z,100568.84
2022-08-19T04:24:19.207Z,100572.22
2022-08-19T04:26:49.703Z,100576.66
2022-08-19T04:29:22.988Z,100575.34
2022-08-19T04:31:52.204Z,100578.66
2022-08-19T04:34:24.274Z,100581.50
2022-08-19T04:36:53.926Z,100571.19
2022-08-19T04:39:45.541Z,100575.38
2022-08-19T04:42:33.413Z,100567.81
2022-08-19T04:45:01.861Z,100568.09
2022-08-19T04:47:49.133Z,100558.16
2022-08-19T04:50:22.517Z,100543.41
2022-08-19T04:52:52.641Z,100552.09
2022-08-19T04:55:21.190Z,100539.50
2022-08-19T04:57:51.693Z,100539.91
2022-08-19T05:00:20.130Z,100533.31
2022-08-19T05:02:50.178Z,100531.44
2022-08-19T05:05:18.623Z,100542.00
2022-08-19T05:07:46.912Z,100528.94
2022-08-19T05:10:15.110Z,100524.69
2022-08-19T05:12:43.306Z,100517.63
2022-08-19T05:15:13.028Z,100525.41
2022-08-19T05:18:02.115Z,100529.28
2022-08-19T05:20:48.074Z,100509.50
2022-08-19T05:23:22.154Z,100514.59
2022-08-19T05:25:52.610Z,100503.19
2022-08-19T05:28:21.289Z,100496.59
2022-08-19T05:30:51.872Z,100498.66
2022-08-19T05:33:21.058Z,100507.00
2022-08-19T05:35:50.404Z,100507.50
2022-08-19T05:38:19.327Z,100512.09
2022-08-19T05:40:48.032Z,100508.06
2022-08-19T05:43:17.389Z,100513.56
2022-08-19T05:45:45.956Z,100518.97
2022-08-19T05:48:18.371Z,100523.06
2022-08-19T05:50:46.544Z,100512.28
2022-08-19T05:53:17.390Z,100519.88
2022-08-19T05:55:45.870Z,100514.97
2022-08-19T05:58:14.178Z,100517.06
2022-08-19T06:00:45.423Z,100513.75
2022-08-19T06:03:14.900Z,100503.59
2022-08-19T06:05:51.459Z,100500.38
2022-08-19T06:08:34.522Z,100507.66
2022-08-19T06:11:19.978Z,100512.00
2022-08-19T06:13:52.046Z,100517.78
2022-08-19T06:16:28.729Z,100514.72
2022-08-19T06:18:59.210Z,100510.34
2022-08-19T06:21:29.652Z,100517.75
2022-08-19T06:23:59.052Z,100510.03
2022-08-19T06:26:28.542Z,100504.94
2022-08-19T06:28:57.174Z,100508.50
2022-08-19T06:31:30.246Z,100508.31
2022-08-19T06:34:00.100Z,100512.69
2022-08-19T06:36:32.648Z,100517.63
2022-08-19T06:39:01.911Z,100515.38
2022-08-19T06:41:31.733Z,100533.53
2022-08-19T06:44:00.147Z,100542.00
2022-08-19T06:46:29.699Z,100549.75
2022-08-19T06:49:03.060Z,100561.56
2022-08-19T06:54:03.051Z,100560.88
2022-08-19T06:56:35.580Z,100551.28
2022-08-19T06:59:07.071Z,100552.66
2022-08-19T07:01:38.431Z,100556.16
2022-08-19T07:04:12.120Z,100546.97
2022-08-19T07:06:44.278Z,100545.03
2022-08-19T07:09:18.247Z,100539.31
2022-08-19T07:11:48.209Z,100538.66
2022-08-19T07:14:19.833Z,100530.38
2022-08-19T07:16:50.146Z,100517.06
2022-08-19T07:19:22.090Z,100524.47
2022-08-19T07:21:53.765Z,100533.75
2022-08-19T07:24:25.348Z,100533.56
2022-08-19T07:26:55.228Z,100527.38
2022-08-19T07:29:25.847Z,100536.13
2022-08-19T07:32:00.201Z,100544.41
2022-08-19T07:34:32.435Z,100544.72
2022-08-19T07:37:00.631Z,100539.09
2022-08-19T07:39:32.391Z,100532.63
2022-08-19T07:42:03.188Z,100532.66
2022-08-19T07:44:31.462Z,100533.66
2022-08-19T07:47:01.069Z,100517.81
2022-08-19T07:49:30.610Z,100510.75
2022-08-19T07:52:02.285Z,100500.28
2022-08-19T07:54:35.178Z,100495.91
2022-08-19T07:57:04.520Z,100495.91
2022-08-19T07:59:32.959Z,100507.53
2022-08-19T08:02:01.751Z,100508.72
2022-08-19T08:04:58.818Z,100512.13
2022-08-19T08:07:46.314Z,100491.50
2022-08-19T08:10:20.678Z,100490.84
2022-08-19T08:13:08.581Z,100487.81
2022-08-19T08:15:42.696Z,100481.41
2022-08-19T08:18:11.557Z,100483.59
2022-08-19T08:20:41.145Z,100469.25
2022-08-19T08:23:26.480Z,100466.41
2022-08-19T08:25:57.582Z,100474.31
2022-08-19T08:28:29.634Z,100473.47
2022-08-19T08:30:59.889Z,100461.13
2022-08-19T08:33:34.861Z,100446.97
2022-08-19T08:36:07.440Z,100434.81
2022-08-19T08:38:39.833Z,100435.47
2022-08-19T08:41:21.317Z,100428.91
2022-08-19T08:43:52.794Z,100440.91
2022-08-19T08:46:31.133Z,100450.88
2022-08-19T08:49:06.726Z,100459.13
2022-08-19T08:54:17.747Z,100432.34
2022-08-19T08:56:46.866Z,100421.72
2022-08-19T08:59:22.036Z,100422.47
2022-08-19T09:01:50.347Z,100419.50
2022-08-19T09:04:18.893Z,100411.75
2022-08-19T09:06:54.470Z,100417.44
2022-08-19T09:09:32.103Z,100418.09
2022-08-19T09:12:11.778Z,100404.34
2022-08-19T09:14:51.582Z,100399.47
2022-08-19T09:17:31.581Z,100396.34
2022-08-19T09:20:05.729Z,100402.41
2022-08-19T09:22:40.263Z,100414.00
2022-08-19T09:25:11.346Z,100412.78
2022-08-19T09:27:42.793Z,100401.59
2022-08-19T09:30:16.976Z,100397.59
2022-08-19T09:32:46.291Z,100394.66
2022-08-19T09:35:16.423Z,100394.03
2022-08-19T09:37:46.427Z,100399.22
2022-08-19T09:40:15.582Z,100393.75
2022-08-19T09:42:50.017Z,100389.38
2022-08-19T09:45:21.798Z,100382.28
2022-08-19T09:47:52.138Z,100366.53
2022-08-19T09:50:24.526Z,100357.00
2022-08-19T09:52:58.022Z,100354.72
2022-08-19T09:55:31.171Z,100357.91
2022-08-19T09:57:59.665Z,100364.38
2022-08-19T10:00:27.853Z,100359.56
2022-08-19T10:02:56.044Z,100366.34
2022-08-19T10:05:42.713Z,100371.97
2022-08-19T10:08:13.296Z,100376.63
2022-08-19T10:10:46.568Z,100374.19
2022-08-19T10:13:16.923Z,100373.47
2022-08-19T10:15:47.961Z,100383.06
2022-08-19T10:18:19.462Z,100381.66
2022-08-19T10:20:51.797Z,100375.19
2022-08-19T10:23:23.093Z,100364.00
2022-08-19T10:25:54.497Z,100352.59
2022-08-19T10:28:23.984Z,100342.41
2022-08-19T10:30:52.198Z,100331.56
2022-08-19T10:33:38.473Z,100327.69
2022-08-19T10:36:11.535Z,100331.31
2022-08-19T10:38:47.508Z,100326.19
2022-08-19T10:41:24.333Z,100321.78
2022-08-19T10:43:53.438Z,100322.13
2022-08-19T10:46:23.813Z,100329.69
2022-08-19T10:48:54.232Z,100332.34
2022-08-19T10:51:47.831Z,100325.81
2022-08-19T10:54:31.133Z,100324.91
2022-08-19T10:57:00.596Z,100331.44
2022-08-19T10:59:35.752Z,100330.94
2022-08-19T11:02:06.201Z,100324.25
2022-08-19T11:04:35.752Z,100335.59
2022-08-19T11:07:05.697Z,100340.19
2022-08-19T11:09:40.772Z,100344.03
2022-08-19T11:12:10.506Z,100344.94
2022-08-19T11:14:39.851Z,100353.53
2022-08-19T11:17:08.233Z,100355.69
2022-08-19T11:19:36.717Z,100352.59
2022-08-19T11:22:05.114Z,100351.00
2022-08-19T11:24:35.455Z,100354.47
2022-08-19T11:27:07.185Z,100363.03
2022-08-19T11:29:35.771Z,100357.50
2022-08-19T11:32:07.142Z,100359.38
2022-08-19T11:34:36.345Z,100346.84
2022-08-19T11:37:06.736Z,100360.22
2022-08-19T11:39:38.185Z,100355.13
2022-08-19T11:42:28.931Z,100364.50
2022-08-19T11:44:57.400Z,100371.94
2022-08-19T11:47:27.168Z,100373.69
2022-08-19T11:49:55.448Z,100389.00
2022-08-19T11:52:24.181Z,100385.00
2022-08-19T11:54:53.706Z,100388.34
2022-08-19T11:57:22.011Z,100400.97
2022-08-19T11:59:53.546Z,100396.94
2022-08-19T12:02:22.885Z,100404.25
2022-08-19T12:04:51.199Z,100402.38
2022-08-19T12:07:19.794Z,100404.25
2022-08-19T12:09:48.632Z,100403.69
2022-08-19T12:12:18.843Z,100394.81
2022-08-19T12:14:47.546Z,100396.22
2022-08-19T12:17:16.206Z,100385.00
2022-08-19T12:19:44.505Z,100368.78
2022-08-19T12:22:13.292Z,100366.81
2022-08-19T12:24:41.483Z,100369.91
2022-08-19T12:27:12.583Z,100367.72
2022-08-19T12:29:42.645Z,100370.66
2022-08-19T12:32:12.025Z,100373.78
2022-08-19T12:34:41.103Z,100379.41
2022-08-19T12:37:09.605Z,100379.59
2022-08-19T12:39:40.523Z,100386.06
2022-08-19T12:42:09.341Z,100378.56
2022-08-19T12:44:38.384Z,100384.66
2022-08-19T12:47:12.584Z,100367.25
2022-08-19T12:49:54.544Z,100373.31
2022-08-19T12:52:25.791Z,100356.44
2022-08-19T12:54:56.040Z,100356.47
2022-08-19T12:57:32.792Z,100351.94
2022-08-19T13:00:05.255Z,100361.50
2022-08-19T13:02:37.165Z,100358.47
2022-08-19T13:05:10.248Z,100356.97
2022-08-19T13:07:39.484Z,100364.88
2022-08-19T13:10:09.895Z,100362.16
2022-08-19T13:12:38.259Z,100370.25
2022-08-19T13:15:11.202Z,100367.75
2022-08-19T13:17:42.063Z,100367.31
2022-08-19T13:20:12.255Z,100363.63
2022-08-19T13:22:40.844Z,100375.75
2022-08-19T13:25:10.222Z,100373.88
2022-08-19T13:27:39.677Z,100372.19
2022-08-19T13:30:28.394Z,100369.72
2022-08-19T13:33:15.390Z,100371.84
2022-08-19T13:35:47.963Z,100374.63
2022-08-19T13:38:18.497Z,100373.66
2022-08-19T13:40:47.672Z,100378.47
2022-08-19T13:43:22.536Z,100381.19
2022-08-19T13:45:53.649Z,100384.88
2022-08-19T13:48:24.543Z,100387.72
2022-08-19T13:50:52.715Z,100383.59
2022-08-19T13:53:20.942Z,100381.34
2022-08-19T13:55:50.890Z,100376.16
2022-08-19T13:58:19.449Z,100381.84
2022-08-19T14:00:49.299Z,100375.25
2022-08-19T14:03:17.610Z,100366.38
2022-08-19T14:05:47.963Z,100356.03
2022-08-19T14:08:16.179Z,100356.03
2022-08-19T14:10:45.536Z,100365.47
2022-08-19T14:13:16.742Z,100364.91
2022-08-19T14:15:45.268Z,100353.25
2022-08-19T14:18:13.642Z,100355.53
2022-08-19T14:20:42.850Z,100356.78
2022-08-19T14:23:13.206Z,100370.44
2022-08-19T14:25:41.624Z,100363.03
2022-08-19T14:28:09.865Z,100366.63
2022-08-19T14:30:39.582Z,100365.03
2022-08-19T14:33:09.268Z,100360.22
2022-08-19T14:35:38.817Z,100366.09
2022-08-19T14:38:09.062Z,100370.75
2022-08-19T14:40:40.295Z,100376.75
2022-08-19T14:43:08.622Z,100389.59
2022-08-19T14:45:38.782Z,100385.84
2022-08-19T14:48:18.900Z,100378.72
2022-08-19T14:50:47.673Z,100383.78
2022-08-19T14:53:18.172Z,100380.22
2022-08-19T14:55:48.366Z,100379.88
2022-08-19T14:58:29.621Z,100377.47
2022-08-19T15:00:59.929Z,100378.47
2022-08-19T15:03:28.276Z,100379.72
2022-08-19T15:05:58.353Z,100379.94
2022-08-19T15:08:27.611Z,100380.78
2022-08-19T15:10:57.925Z,100383.56
2022-08-19T15:13:27.741Z,100383.84
2022-08-19T15:15:56.936Z,100389.53
2022-08-19T15:18:25.131Z,100393.91
2022-08-19T15:20:53.369Z,100395.50
2022-08-19T15:23:22.890Z,100399.72
2022-08-19T15:25:54.384Z,100396.59
2022-08-19T15:28:24.502Z,100401.13
2022-08-19T15:30:53.054Z,100400.78
2022-08-19T15:33:21.564Z,100414.06
2022-08-19T15:35:51.569Z,100402.66
2022-08-19T15:38:22.333Z,100407.50
2022-08-19T15:40:51.818Z,100413.69
2022-08-19T15:43:22.467Z,100393.31
2022-08-19T15:45:52.025Z,100393.47
2022-08-19T15:48:20.201Z,100401.06
2022-08-19T15:50:48.374Z,100387.31
2022-08-19T15:53:17.209Z,100393.13
2022-08-19T15:55:48.460Z,100395.81
2022-08-19T15:58:34.710Z,100392.94
2022-08-19T16:01:26.995Z,100393.53
2022-08-19T16:04:16.014Z,100391.00
2022-08-19T16:06:47.797Z,100388.91
2022-08-19T16:09:17.210Z,100393.28
2022-08-19T16:11:56.145Z,100399.84
2022-08-19T16:14:26.085Z,100398.94
2022-08-19T16:16:56.825Z,100402.38
2022-08-19T16:19:26.130Z,100412.53
2022-08-19T16:21:56.787Z,100415.94
2022-08-19T16:24:27.119Z,100428.09
2022-08-19T16:26:56.591Z,100434.69
2022-08-19T16:29:34.747Z,100426.00
2022-08-19T16:32:11.700Z,100439.09
2022-08-19T16:34:41.577Z,100442.78
2022-08-19T16:37:10.551Z,100442.63
2022-08-19T16:39:39.746Z,100449.97
2022-08-19T16:42:10.209Z,100442.97
2022-08-19T16:44:41.563Z,100440.66
2022-08-19T16:47:12.421Z,100430.19
2022-08-19T16:49:53.123Z,100430.75
2022-08-19T16:52:26.177Z,100441.22
2022-08-19T16:54:54.645Z,100448.59
2022-08-19T16:57:24.357Z,100445.06
2022-08-19T16:59:52.805Z,100441.94
2022-08-19T17:02:23.640Z,100448.03
2022-08-19T17:04:59.250Z,100447.56
2022-08-19T17:07:29.057Z,100445.22
2022-08-19T17:09:57.892Z,100446.53
2022-08-19T17:12:31.877Z,100454.28
2022-08-19T17:15:02.152Z,100451.47
2022-08-19T17:17:32.644Z,100452.75
2022-08-19T17:20:02.462Z,100442.75
2022-08-19T17:22:30.770Z,100445.44
2022-08-19T17:24:59.015Z,100445.72
2022-08-19T17:27:32.124Z,100440.00
2022-08-19T17:30:02.460Z,100447.59
2022-08-19T17:32:35.506Z,100450.25
2022-08-19T17:35:04.990Z,100450.56
2022-08-19T17:37:34.926Z,100461.38
2022-08-19T17:40:03.984Z,100450.72
2022-08-19T17:42:32.346Z,100468.28
2022-08-19T17:45:00.950Z,100461.72
2022-08-19T17:47:29.562Z,100462.53
2022-08-19T17:49:59.262Z,100460.78
2022-08-19T17:52:27.638Z,100453.38
2022-08-19T17:54:56.387Z,100458.91
2022-08-19T17:57:24.607Z,100464.91
2022-08-19T17:59:52.892Z,100474.44
2022-08-19T18:02:21.978Z,100471.41
2022-08-19T18:04:50.689Z,100479.47
2022-08-19T18:07:21.623Z,100484.63
2022-08-19T18:09:52.763Z,100486.63
2022-08-19T18:12:26.492Z,100487.50
2022-08-19T18:14:54.709Z,100497.16
2022-08-19T18:17:23.533Z,100505.31
2022-08-19T18:19:51.726Z,100500.88
2022-08-19T18:22:27.270Z,100509.66
2022-08-19T18:24:56.348Z,100514.75
2022-08-19T18:27:25.457Z,100515.47
2022-08-19T18:29:56.639Z,100524.63
2022-08-19T18:32:26.085Z,100518.88
2022-08-19T18:34:56.151Z,100514.50
2022-08-19T18:37:27.187Z,100517.53
2022-08-19T18:40:13.170Z,100523.44
2022-08-19T18:43:17.636Z,100527.00
2022-08-19T18:46:04.289Z,100525.31
2022-08-19T18:48:53.495Z,100526.31
2022-08-19T18:51:25.260Z,100541.91
2022-08-19T18:53:58.824Z,100545.13
2022-08-19T18:56:32.218Z,100533.94
2022-08-19T18:59:01.651Z,100547.09
2022-08-19T19:01:32.831Z,100544.16
2022-08-19T19:04:03.677Z,100543.34
2022-08-19T19:06:35.809Z,100544.44
2022-08-19T19:09:06.454Z,100552.72
2022-08-19T19:11:37.901Z,100551.72
2022-08-19T19:14:19.215Z,100556.09
2022-08-19T19:17:01.990Z,100573.00
2022-08-19T19:19:30.874Z,100579.91
2022-08-19T19:22:01.015Z,100574.50
2022-08-19T19:24:33.473Z,100567.41
2022-08-19T19:27:06.657Z,100578.72
2022-08-19T19:29:35.626Z,100580.28
2022-08-19T19:32:04.138Z,100596.50
2022-08-19T19:34:32.665Z,100599.00
2022-08-19T19:37:00.840Z,100602.72
2022-08-19T19:39:44.719Z,100604.44
2022-08-19T19:42:20.026Z,100599.72
2022-08-19T19:44:50.476Z,100594.69
2022-08-19T19:47:19.956Z,100598.59
2022-08-19T19:52:39.360Z,100613.09
2022-08-19T19:55:09.480Z,100618.34
2022-08-19T19:57:40.044Z,100622.03
2022-08-19T20:00:09.949Z,100620.53
2022-08-19T20:02:38.531Z,100611.44
2022-08-19T20:05:07.202Z,100619.91
2022-08-19T20:07:51.950Z,100620.22
2022-08-19T20:10:21.565Z,100618.03
2022-08-19T20:12:51.950Z,100615.69
2022-08-19T20:15:20.490Z,100612.94
2022-08-19T20:17:48.875Z,100619.19
2022-08-19T20:20:19.134Z,100626.66
2022-08-19T20:22:48.379Z,100620.41
2022-08-19T20:25:18.567Z,100624.13
2022-08-19T20:27:52.258Z,100620.09
2022-08-19T20:30:23.241Z,100619.41
2022-08-19T20:32:51.790Z,100627.50
2022-08-19T20:35:22.158Z,100625.16
2022-08-19T20:37:52.879Z,100627.19
2022-08-19T20:40:24.362Z,100624.13
2022-08-19T20:42:54.281Z,100627.53
2022-08-19T20:45:32.784Z,100621.09
2022-08-19T20:48:03.134Z,100617.38
2022-08-19T20:50:32.135Z,100607.25
2022-08-19T20:53:00.799Z,100608.44
2022-08-19T20:55:30.481Z,100616.69
2022-08-19T20:58:00.051Z,100614.66
2022-08-19T21:00:29.374Z,100610.47
2022-08-19T21:02:57.721Z,100614.16
2022-08-19T21:05:30.275Z,100615.00
2022-08-19T21:07:58.852Z,100609.94
2022-08-19T21:10:27.502Z,100628.84
2022-08-19T21:12:56.341Z,100633.38
2022-08-19T21:15:25.921Z,100631.88
2022-08-19T21:20:22.211Z,100626.16
2022-08-19T21:22:50.866Z,100626.47
2022-08-19T21:25:19.296Z,100627.31
2022-08-19T21:27:47.481Z,100632.53
2022-08-19T21:30:15.750Z,100617.53
2022-08-19T21:32:48.231Z,100622.09
2022-08-19T21:35:19.653Z,100622.59
2022-08-19T21:37:47.860Z,100629.84
2022-08-19T21:40:16.664Z,100632.22
2022-08-19T21:42:45.238Z,100624.81
2022-08-19T21:45:14.839Z,100618.69
2022-08-19T21:47:43.048Z,100604.69
2022-08-19T21:50:13.821Z,100614.16
2022-08-19T21:52:42.138Z,100617.84
2022-08-19T21:55:12.209Z,100636.56
2022-08-19T21:57:41.507Z,100639.13
2022-08-19T22:00:15.532Z,100636.56
2022-08-19T22:02:44.246Z,100640.94
2022-08-19T22:05:14.160Z,100639.31
2022-08-19T22:07:42.981Z,100631.16
2022-08-19T22:10:12.362Z,100637.38
2022-08-19T22:12:45.972Z,100645.53
2022-08-19T22:15:22.117Z,100638.63
2022-08-19T22:17:51.027Z,100639.09
2022-08-19T22:20:23.122Z,100656.47
2022-08-19T22:22:56.978Z,100651.38
2022-08-19T22:25:31.470Z,100645.78
2022-08-19T22:28:01.701Z,100632.03
2022-08-19T22:30:33.139Z,100650.72
2022-08-19T22:33:05.944Z,100658.09
2022-08-19T22:35:38.415Z,100647.03
2022-08-19T22:38:08.497Z,100646.88
2022-08-19T22:40:39.805Z,100646.97
2022-08-19T22:43:12.027Z,100640.91
2022-08-19T22:45:40.264Z,100638.59
2022-08-19T22:48:11.602Z,100635.19
2022-08-19T22:50:43.833Z,100636.56
2022-08-19T22:53:12.283Z,100646.13
2022-08-19T22:55:40.453Z,100644.47
2022-08-19T22:58:08.610Z,100635.19
2022-08-19T23:00:36.825Z,100628.41
2022-08-19T23:03:05.580Z,100629.91
2022-08-19T23:05:33.833Z,100624.72
2022-08-19T23:08:07.459Z,100633.84
2022-08-19T23:10:35.706Z,100634.16
2022-08-19T23:13:03.885Z,100635.88
2022-08-19T23:15:33.341Z,100644.97
2022-08-19T23:18:03.797Z,100641.56
2022-08-19T23:20:35.606Z,100643.59
2022-08-19T23:23:08.356Z,100632.69
2022-08-19T23:25:38.275Z,100633.84
2022-08-19T23:28:24.997Z,100635.19
2022-08-19T23:30:54.549Z,100645.13
2022-08-19T23:33:46.643Z,100639.38
2022-08-19T23:36:19.077Z,100637.69
2022-08-19T23:38:50.530Z,100643.94
2022-08-19T23:41:21.303Z,100642.94
2022-08-19T23:43:51.481Z,100637.22
2022-08-19T23:46:27.416Z,100636.00
2022-08-19T23:48:56.723Z,100641.28
2022-08-19T23:51:26.714Z,100652.38
2022-08-19T23:53:56.641Z,100652.72
2022-08-19T23:56:24.843Z,100649.69
2022-08-19T23:58:53.022Z,100640.56
